sensor_id;sensor_type;location;lat;lon;timestamp;temperature;humidity
40676;DHT22;26359;48.750;9.314;2022-08-18T00:00:56;20.00;99.90
40676;DHT22;26359;48.750;9.314;2022-08-18T00:03:22;19.90;99.90
40676;DHT22;26359;48.750;9.314;2022-08-18T00:05:48;19.90;99.90
40676;DHT22;26359;48.750;9.314;2022-08-18T00:08:13;19.90;99.90
40676;DHT22;26359;48.750;9.314;2022-08-18T00:10:41;19.90;99.90
40676;DHT22;26359;48.750;9.314;2022-08-18T00:13:06;19.90;99.90
40676;DHT22;26359;48.750;9.314;2022-08-18T00:15:32;19.90;99.90
40676;DHT22;26359;48.750;9.314;2022-08-18T00:17:57;19.90;99.90
40676;DHT22;26359;48.750;9.314;2022-08-18T00:20:23;20.00;99.90
40676;DHT22;26359;48.750;9.314;2022-08-18T00:22:49;19.90;99.90
40676;DHT22;26359;48.750;9.314;2022-08-18T00:25:17;19.90;99.90
40676;DHT22;26359;48.750;9.314;2022-08-18T00:27:43;19.80;99.90
40676;DHT22;26359;48.750;9.314;2022-08-18T00:30:12;19.80;99.90
40676;DHT22;26359;48.750;9.314;2022-08-18T00:32:41;19.90;99.90
40676;DHT22;26359;48.750;9.314;2022-08-18T00:35:16;19.90;99.90
40676;DHT22;26359;48.750;9.314;2022-08-18T00:37:43;19.90;99.90
40676;DHT22;26359;48.750;9.314;2022-08-18T00:40:11;19.80;99.90
40676;DHT22;26359;48.750;9.314;2022-08-18T00:42:47;19.70;99.90
40676;DHT22;26359;48.750;9.314;2022-08-18T00:45:17;19.70;99.90
40676;DHT22;26359;48.750;9.314;2022-08-18T00:47:43;19.70;99.90
40676;DHT22;26359;48.750;9.314;2022-08-18T00:50:16;19.70;99.90
40676;DHT22;26359;48.750;9.314;2022-08-18T00:52:47;19.70;99.90
40676;DHT22;26359;48.750;9.314;2022-08-18T00:55:15;19.70;99.90
40676;DHT22;26359;48.750;9.314;2022-08-18T00:57:43;19.80;99.90
40676;DHT22;26359;48.750;9.314;2022-08-18T01:00:09;19.80;99.90
40676;DHT22;26359;48.750;9.314;2022-08-18T01:02:42;19.80;99.90
40676;DHT22;26359;48.750;9.314;2022-08-18T01:05:21;19.80;99.90
40676;DHT22;26359;48.750;9.314;2022-08-18T01:07:49;19.80;99.90
40676;DHT22;26359;48.750;9.314;2022-08-18T01:10:19;19.80;99.90
40676;DHT22;26359;48.750;9.314;2022-08-18T01:12:54;19.80;99.90
40676;DHT22;26359;48.750;9.314;2022-08-18T01:15:22;19.80;99.90
40676;DHT22;26359;48.750;9.314;2022-08-18T01:17:48;19.80;99.90
40676;DHT22;26359;48.750;9.314;2022-08-18T01:20:49;19.80;99.90
40676;DHT22;26359;48.750;9.314;2022-08-18T01:23:35;19.80;99.90
40676;DHT22;26359;48.750;9.314;2022-08-18T01:26:00;19.80;99.90
40676;DHT22;26359;48.750;9.314;2022-08-18T01:28:40;19.80;99.90
40676;DHT22;26359;48.750;9.314;2022-08-18T01:31:08;19.70;99.90
40676;DHT22;26359;48.750;9.314;2022-08-18T01:33:36;19.80;99.90
40676;DHT22;26359;48.750;9.314;2022-08-18T01:36:18;19.70;99.90
40676;DHT22;26359;48.750;9.314;2022-08-18T01:38:47;19.70;99.90
40676;DHT22;26359;48.750;9.314;2022-08-18T01:41:15;19.70;99.90
40676;DHT22;26359;48.750;9.314;2022-08-18T01:43:41;19.70;99.90
40676;DHT22;26359;48.750;9.314;2022-08-18T01:46:07;19.70;99.90
40676;DHT22;26359;48.750;9.314;2022-08-18T01:48:34;19.60;99.90
40676;DHT22;26359;48.750;9.314;2022-08-18T01:51:02;19.60;99.90
40676;DHT22;26359;48.750;9.314;2022-08-18T01:53:28;19.60;99.90
40676;DHT22;26359;48.750;9.314;2022-08-18T01:55:54;19.60;99.90
40676;DHT22;26359;48.750;9.314;2022-08-18T01:58:20;19.60;99.90
40676;DHT22;26359;48.750;9.314;2022-08-18T02:00:53;19.60;99.90
40676;DHT22;26359;48.750;9.314;2022-08-18T02:03:23;19.60;99.90
40676;DHT22;26359;48.750;9.314;2022-08-18T02:05:52;19.60;99.90
40676;DHT22;26359;48.750;9.314;2022-08-18T02:08:20;19.50;99.90
40676;DHT22;26359;48.750;9.314;2022-08-18T02:10:46;19.50;99.90
40676;DHT22;26359;48.750;9.314;2022-08-18T02:13:12;19.60;99.90
40676;DHT22;26359;48.750;9.314;2022-08-18T02:15:37;19.50;99.90
40676;DHT22;26359;48.750;9.314;2022-08-18T02:18:03;19.60;99.90
40676;DHT22;26359;48.750;9.314;2022-08-18T02:20:29;19.50;99.90
40676;DHT22;26359;48.750;9.314;2022-08-18T02:22:54;19.60;99.90
40676;DHT22;26359;48.750;9.314;2022-08-18T02:25:23;19.60;99.90
40676;DHT22;26359;48.750;9.314;2022-08-18T02:27:49;19.50;99.90
40676;DHT22;26359;48.750;9.314;2022-08-18T02:30:16;19.50;99.90
40676;DHT22;26359;48.750;9.314;2022-08-18T02:32:42;19.50;99.90
40676;DHT22;26359;48.750;9.314;2022-08-18T02:35:09;19.50;99.90
40676;DHT22;26359;48.750;9.314;2022-08-18T02:37:39;19.60;99.90
40676;DHT22;26359;48.750;9.314;2022-08-18T02:40:05;19.50;99.90
40676;DHT22;26359;48.750;9.314;2022-08-18T02:42:31;19.50;99.90
40676;DHT22;26359;48.750;9.314;2022-08-18T02:44:57;19.50;99.90
40676;DHT22;26359;48.750;9.314;2022-08-18T02:47:22;19.50;99.90
40676;DHT22;26359;48.750;9.314;2022-08-18T02:49:48;19.50;99.90
40676;DHT22;26359;48.750;9.314;2022-08-18T02:52:14;19.50;99.90
40676;DHT22;26359;48.750;9.314;2022-08-18T02:54:39;19.50;99.90
40676;DHT22;26359;48.750;9.314;2022-08-18T02:57:10;19.40;99.90
40676;DHT22;26359;48.750;9.314;2022-08-18T02:59:37;19.30;99.90
40676;DHT22;26359;48.750;9.314;2022-08-18T03:02:04;19.30;99.90
40676;DHT22;26359;48.750;9.314;2022-08-18T03:04:32;19.40;99.90
40676;DHT22;26359;48.750;9.314;2022-08-18T03:07:00;19.40;99.90
40676;DHT22;26359;48.750;9.314;2022-08-18T03:09:27;19.40;99.90
40676;DHT22;26359;48.750;9.314;2022-08-18T03:11:53;19.40;99.90
40676;DHT22;26359;48.750;9.314;2022-08-18T03:14:19;19.50;99.90
40676;DHT22;26359;48.750;9.314;2022-08-18T03:16:46;19.40;99.90
40676;DHT22;26359;48.750;9.314;2022-08-18T03:19:12;19.50;99.90
40676;DHT22;26359;48.750;9.314;2022-08-18T03:21:43;19.50;99.90
40676;DHT22;26359;48.750;9.314;2022-08-18T03:24:09;19.50;99.90
40676;DHT22;26359;48.750;9.314;2022-08-18T03:26:38;19.50;99.90
40676;DHT22;26359;48.750;9.314;2022-08-18T03:29:04;19.50;99.90
40676;DHT22;26359;48.750;9.314;2022-08-18T03:31:29;19.40;99.90
40676;DHT22;26359;48.750;9.314;2022-08-18T03:33:57;19.40;99.90
40676;DHT22;26359;48.750;9.314;2022-08-18T03:36:26;19.40;99.90
40676;DHT22;26359;48.750;9.314;2022-08-18T03:38:52;19.40;99.90
40676;DHT22;26359;48.750;9.314;2022-08-18T03:41:21;19.30;99.90
40676;DHT22;26359;48.750;9.314;2022-08-18T03:43:48;19.20;99.90
40676;DHT22;26359;48.750;9.314;2022-08-18T03:46:14;19.30;99.90
40676;DHT22;26359;48.750;9.314;2022-08-18T03:48:42;19.20;99.90
40676;DHT22;26359;48.750;9.314;2022-08-18T03:51:12;19.20;99.90
40676;DHT22;26359;48.750;9.314;2022-08-18T03:53:39;19.20;99.90
40676;DHT22;26359;48.750;9.314;2022-08-18T03:56:13;19.20;99.90
40676;DHT22;26359;48.750;9.314;2022-08-18T03:58:50;19.20;99.90
40676;DHT22;26359;48.750;9.314;2022-08-18T04:01:17;19.20;99.90
40676;DHT22;26359;48.750;9.314;2022-08-18T04:03:47;19.20;99.90
40676;DHT22;26359;48.750;9.314;2022-08-18T04:06:29;19.20;99.90
40676;DHT22;26359;48.750;9.314;2022-08-18T04:08:58;19.10;99.90
40676;DHT22;26359;48.750;9.314;2022-08-18T04:11:24;19.10;99.90
40676;DHT22;26359;48.750;9.314;2022-08-18T04:13:50;19.20;99.90
40676;DHT22;26359;48.750;9.314;2022-08-18T04:16:16;19.10;99.90
40676;DHT22;26359;48.750;9.314;2022-08-18T04:18:42;19.00;99.90
40676;DHT22;26359;48.750;9.314;2022-08-18T04:21:10;18.90;99.90
40676;DHT22;26359;48.750;9.314;2022-08-18T04:23:39;18.90;99.90
40676;DHT22;26359;48.750;9.314;2022-08-18T04:26:06;18.90;99.90
40676;DHT22;26359;48.750;9.314;2022-08-18T04:28:32;18.90;99.90
40676;DHT22;26359;48.750;9.314;2022-08-18T04:30:58;18.80;99.90
40676;DHT22;26359;48.750;9.314;2022-08-18T04:33:25;18.90;99.90
40676;DHT22;26359;48.750;9.314;2022-08-18T04:35:52;19.00;99.90
40676;DHT22;26359;48.750;9.314;2022-08-18T04:38:18;19.00;99.90
40676;DHT22;26359;48.750;9.314;2022-08-18T04:40:44;19.00;99.90
40676;DHT22;26359;48.750;9.314;2022-08-18T04:43:11;18.90;99.90
40676;DHT22;26359;48.750;9.314;2022-08-18T04:45:41;18.90;99.90
40676;DHT22;26359;48.750;9.314;2022-08-18T04:48:06;18.90;99.90
40676;DHT22;26359;48.750;9.314;2022-08-18T04:50:32;18.90;99.90
40676;DHT22;26359;48.750;9.314;2022-08-18T04:52:58;18.90;99.90
40676;DHT22;26359;48.750;9.314;2022-08-18T04:55:47;18.90;99.90
40676;DHT22;26359;48.750;9.314;2022-08-18T04:58:13;18.90;99.90
40676;DHT22;26359;48.750;9.314;2022-08-18T05:00:40;18.90;99.90
40676;DHT22;26359;48.750;9.314;2022-08-18T05:03:08;18.90;99.90
40676;DHT22;26359;48.750;9.314;2022-08-18T05:05:34;18.90;99.90
40676;DHT22;26359;48.750;9.314;2022-08-18T05:08:00;18.90;99.90
40676;DHT22;26359;48.750;9.314;2022-08-18T05:10:25;19.00;99.90
40676;DHT22;26359;48.750;9.314;2022-08-18T05:12:51;19.00;99.90
40676;DHT22;26359;48.750;9.314;2022-08-18T05:15:16;19.00;99.90
40676;DHT22;26359;48.750;9.314;2022-08-18T05:17:43;19.10;99.90
40676;DHT22;26359;48.750;9.314;2022-08-18T05:20:09;19.10;99.90
40676;DHT22;26359;48.750;9.314;2022-08-18T05:22:40;19.10;99.90
40676;DHT22;26359;48.750;9.314;2022-08-18T05:25:08;19.10;99.90
40676;DHT22;26359;48.750;9.314;2022-08-18T05:27:36;19.10;99.90
40676;DHT22;26359;48.750;9.314;2022-08-18T05:30:03;19.10;99.90
40676;DHT22;26359;48.750;9.314;2022-08-18T05:32:33;19.10;99.90
40676;DHT22;26359;48.750;9.314;2022-08-18T05:35:02;19.10;99.90
40676;DHT22;26359;48.750;9.314;2022-08-18T05:37:37;19.10;99.90
40676;DHT22;26359;48.750;9.314;2022-08-18T05:40:04;19.10;99.90
40676;DHT22;26359;48.750;9.314;2022-08-18T05:42:38;19.10;99.90
40676;DHT22;26359;48.750;9.314;2022-08-18T05:45:11;19.10;99.90
40676;DHT22;26359;48.750;9.314;2022-08-18T05:47:37;19.10;99.90
40676;DHT22;26359;48.750;9.314;2022-08-18T05:50:06;19.10;99.90
40676;DHT22;26359;48.750;9.314;2022-08-18T05:55:13;19.20;99.90
40676;DHT22;26359;48.750;9.314;2022-08-18T06:00:50;19.20;99.90
40676;DHT22;26359;48.750;9.314;2022-08-18T06:03:25;19.20;99.90
40676;DHT22;26359;48.750;9.314;2022-08-18T06:05:55;19.20;99.90
40676;DHT22;26359;48.750;9.314;2022-08-18T06:08:26;19.10;99.90
40676;DHT22;26359;48.750;9.314;2022-08-18T06:10:53;19.10;99.90
40676;DHT22;26359;48.750;9.314;2022-08-18T06:13:19;19.20;99.90
40676;DHT22;26359;48.750;9.314;2022-08-18T06:16:04;19.20;99.90
40676;DHT22;26359;48.750;9.314;2022-08-18T06:29:38;19.40;99.90
40676;DHT22;26359;48.750;9.314;2022-08-18T06:32:28;19.40;99.90
40676;DHT22;26359;48.750;9.314;2022-08-18T06:38:02;19.40;99.90
40676;DHT22;26359;48.750;9.314;2022-08-18T06:40:49;19.40;99.90
40676;DHT22;26359;48.750;9.314;2022-08-18T06:43:15;19.40;99.90
40676;DHT22;26359;48.750;9.314;2022-08-18T06:45:44;19.40;99.90
40676;DHT22;26359;48.750;9.314;2022-08-18T06:49:25;19.30;99.90
40676;DHT22;26359;48.750;9.314;2022-08-18T06:51:19;19.40;99.90
40676;DHT22;26359;48.750;9.314;2022-08-18T06:53:54;19.40;99.90
40676;DHT22;26359;48.750;9.314;2022-08-18T06:58:49;19.50;99.90
40676;DHT22;26359;48.750;9.314;2022-08-18T07:01:17;19.50;99.90
40676;DHT22;26359;48.750;9.314;2022-08-18T07:03:53;19.50;99.90
40676;DHT22;26359;48.750;9.314;2022-08-18T07:08:47;19.60;99.90
40676;DHT22;26359;48.750;9.314;2022-08-18T07:13:44;19.70;99.90
40676;DHT22;26359;48.750;9.314;2022-08-18T07:18:54;19.70;99.90
40676;DHT22;26359;48.750;9.314;2022-08-18T07:21:26;19.60;99.90
40676;DHT22;26359;48.750;9.314;2022-08-18T07:24:05;19.60;99.90
40676;DHT22;26359;48.750;9.314;2022-08-18T07:27:08;19.70;99.90
40676;DHT22;26359;48.750;9.314;2022-08-18T07:29:37;19.70;99.90
40676;DHT22;26359;48.750;9.314;2022-08-18T07:32:12;19.70;99.90
40676;DHT22;26359;48.750;9.314;2022-08-18T07:34:42;19.70;99.90
40676;DHT22;26359;48.750;9.314;2022-08-18T07:37:18;19.70;99.90
40676;DHT22;26359;48.750;9.314;2022-08-18T07:40:00;19.70;99.90
40676;DHT22;26359;48.750;9.314;2022-08-18T07:45:10;19.70;99.90
40676;DHT22;26359;48.750;9.314;2022-08-18T07:47:52;19.60;99.90
40676;DHT22;26359;48.750;9.314;2022-08-18T07:50:20;19.60;99.90
40676;DHT22;26359;48.750;9.314;2022-08-18T07:53:25;19.60;99.90
40676;DHT22;26359;48.750;9.314;2022-08-18T07:56:00;19.60;99.90
40676;DHT22;26359;48.750;9.314;2022-08-18T07:58:45;19.60;99.90
40676;DHT22;26359;48.750;9.314;2022-08-18T08:01:23;19.60;99.90
40676;DHT22;26359;48.750;9.314;2022-08-18T08:04:10;19.60;99.90
40676;DHT22;26359;48.750;9.314;2022-08-18T08:06:42;19.60;99.90
40676;DHT22;26359;48.750;9.314;2022-08-18T08:11:59;19.60;99.90
40676;DHT22;26359;48.750;9.314;2022-08-18T08:14:43;19.60;99.90
40676;DHT22;26359;48.750;9.314;2022-08-18T08:17:24;19.60;99.90
40676;DHT22;26359;48.750;9.314;2022-08-18T08:25:25;19.60;99.90
40676;DHT22;26359;48.750;9.314;2022-08-18T08:28:20;19.60;99.90
40676;DHT22;26359;48.750;9.314;2022-08-18T08:33:48;19.80;99.90
40676;DHT22;26359;48.750;9.314;2022-08-18T08:36:33;19.80;99.90
40676;DHT22;26359;48.750;9.314;2022-08-18T08:39:08;19.90;99.90
40676;DHT22;26359;48.750;9.314;2022-08-18T08:41:46;19.90;99.90
40676;DHT22;26359;48.750;9.314;2022-08-18T08:44:36;19.90;99.90
40676;DHT22;26359;48.750;9.314;2022-08-18T08:47:28;20.00;99.90
40676;DHT22;26359;48.750;9.314;2022-08-18T08:50:11;20.10;99.90
40676;DHT22;26359;48.750;9.314;2022-08-18T08:57:53;20.30;99.90
40676;DHT22;26359;48.750;9.314;2022-08-18T09:00:20;20.30;99.90
40676;DHT22;26359;48.750;9.314;2022-08-18T09:02:53;20.40;99.90
40676;DHT22;26359;48.750;9.314;2022-08-18T09:05:29;20.50;99.90
40676;DHT22;26359;48.750;9.314;2022-08-18T09:08:11;20.60;99.90
40676;DHT22;26359;48.750;9.314;2022-08-18T09:13:27;20.80;99.90
40676;DHT22;26359;48.750;9.314;2022-08-18T09:18:55;21.10;99.90
40676;DHT22;26359;48.750;9.314;2022-08-18T09:21:42;21.20;99.90
40676;DHT22;26359;48.750;9.314;2022-08-18T09:24:19;21.40;99.90
40676;DHT22;26359;48.750;9.314;2022-08-18T09:27:10;21.50;99.90
40676;DHT22;26359;48.750;9.314;2022-08-18T09:37:53;21.80;99.90
40676;DHT22;26359;48.750;9.314;2022-08-18T09:41:11;22.00;99.90
40676;DHT22;26359;48.750;9.314;2022-08-18T09:44:11;22.20;99.90
40676;DHT22;26359;48.750;9.314;2022-08-18T09:49:30;22.60;99.90
40676;DHT22;26359;48.750;9.314;2022-08-18T09:51:58;22.60;99.90
40676;DHT22;26359;48.750;9.314;2022-08-18T09:54:29;22.70;99.90
40676;DHT22;26359;48.750;9.314;2022-08-18T09:57:15;22.70;99.90
40676;DHT22;26359;48.750;9.314;2022-08-18T10:07:51;22.70;99.90
40676;DHT22;26359;48.750;9.314;2022-08-18T10:10:29;22.70;99.90
40676;DHT22;26359;48.750;9.314;2022-08-18T10:13:25;22.70;99.90
40676;DHT22;26359;48.750;9.314;2022-08-18T10:19:04;22.90;99.90
40676;DHT22;26359;48.750;9.314;2022-08-18T10:24:21;23.20;99.90
40676;DHT22;26359;48.750;9.314;2022-08-18T10:29:43;23.20;99.90
40676;DHT22;26359;48.750;9.314;2022-08-18T10:34:45;23.30;99.90
40676;DHT22;26359;48.750;9.314;2022-08-18T10:37:14;23.40;99.90
40676;DHT22;26359;48.750;9.314;2022-08-18T10:45:13;23.60;99.90
40676;DHT22;26359;48.750;9.314;2022-08-18T10:47:40;23.90;99.90
40676;DHT22;26359;48.750;9.314;2022-08-18T10:50:21;24.00;99.90
40676;DHT22;26359;48.750;9.314;2022-08-18T10:52:58;24.00;99.90
40676;DHT22;26359;48.750;9.314;2022-08-18T10:55:49;24.00;99.90
40676;DHT22;26359;48.750;9.314;2022-08-18T10:58:32;24.20;99.90
40676;DHT22;26359;48.750;9.314;2022-08-18T11:06:06;25.50;99.90
40676;DHT22;26359;48.750;9.314;2022-08-18T11:08:41;25.50;99.90
40676;DHT22;26359;48.750;9.314;2022-08-18T11:11:09;25.30;99.90
40676;DHT22;26359;48.750;9.314;2022-08-18T11:14:07;25.20;99.90
40676;DHT22;26359;48.750;9.314;2022-08-18T11:16:43;25.10;99.90
40676;DHT22;26359;48.750;9.314;2022-08-18T11:19:12;24.90;99.90
40676;DHT22;26359;48.750;9.314;2022-08-18T11:21:43;25.00;99.90
40676;DHT22;26359;48.750;9.314;2022-08-18T11:24:16;25.00;99.90
40676;DHT22;26359;48.750;9.314;2022-08-18T11:26:59;25.10;99.90
40676;DHT22;26359;48.750;9.314;2022-08-18T11:29:35;25.30;99.90
40676;DHT22;26359;48.750;9.314;2022-08-18T11:32:05;25.40;99.90
40676;DHT22;26359;48.750;9.314;2022-08-18T11:34:36;25.70;99.90
40676;DHT22;26359;48.750;9.314;2022-08-18T11:37:06;26.00;99.90
40676;DHT22;26359;48.750;9.314;2022-08-18T11:39:47;26.20;99.90
40676;DHT22;26359;48.750;9.314;2022-08-18T11:42:15;26.10;99.90
40676;DHT22;26359;48.750;9.314;2022-08-18T11:44:41;25.70;99.90
40676;DHT22;26359;48.750;9.314;2022-08-18T11:47:16;25.70;99.90
40676;DHT22;26359;48.750;9.314;2022-08-18T11:50:06;25.90;99.90
40676;DHT22;26359;48.750;9.314;2022-08-18T11:52:48;26.10;99.90
40676;DHT22;26359;48.750;9.314;2022-08-18T11:55:30;26.10;99.90
40676;DHT22;26359;48.750;9.314;2022-08-18T11:57:58;26.00;99.90
40676;DHT22;26359;48.750;9.314;2022-08-18T12:03:29;26.20;99.90
40676;DHT22;26359;48.750;9.314;2022-08-18T12:06:08;26.10;99.90
40676;DHT22;26359;48.750;9.314;2022-08-18T12:08:46;26.10;99.90
40676;DHT22;26359;48.750;9.314;2022-08-18T12:11:18;26.00;99.90
40676;DHT22;26359;48.750;9.314;2022-08-18T12:13:47;26.10;99.90
40676;DHT22;26359;48.750;9.314;2022-08-18T12:16:38;26.30;99.90
40676;DHT22;26359;48.750;9.314;2022-08-18T12:19:11;26.50;99.90
40676;DHT22;26359;48.750;9.314;2022-08-18T12:21:53;26.80;99.90
40676;DHT22;26359;48.750;9.314;2022-08-18T12:24:30;26.90;99.90
40676;DHT22;26359;48.750;9.314;2022-08-18T12:26:58;26.90;99.90
40676;DHT22;26359;48.750;9.314;2022-08-18T12:29:25;27.10;99.90
40676;DHT22;26359;48.750;9.314;2022-08-18T12:31:53;27.30;99.90
40676;DHT22;26359;48.750;9.314;2022-08-18T12:34:22;27.40;99.90
40676;DHT22;26359;48.750;9.314;2022-08-18T12:36:50;27.60;99.90
40676;DHT22;26359;48.750;9.314;2022-08-18T12:39:16;27.70;99.90
40676;DHT22;26359;48.750;9.314;2022-08-18T12:41:42;27.80;99.90
40676;DHT22;26359;48.750;9.314;2022-08-18T12:44:07;27.70;99.90
40676;DHT22;26359;48.750;9.314;2022-08-18T12:46:33;27.60;99.90
40676;DHT22;26359;48.750;9.314;2022-08-18T12:48:58;27.70;99.90
40676;DHT22;26359;48.750;9.314;2022-08-18T12:51:25;27.60;99.90
40676;DHT22;26359;48.750;9.314;2022-08-18T12:53:50;27.60;99.90
40676;DHT22;26359;48.750;9.314;2022-08-18T12:56:24;27.60;99.90
40676;DHT22;26359;48.750;9.314;2022-08-18T12:58:51;27.60;99.90
40676;DHT22;26359;48.750;9.314;2022-08-18T13:01:17;27.70;99.90
40676;DHT22;26359;48.750;9.314;2022-08-18T13:03:44;27.70;99.90
40676;DHT22;26359;48.750;9.314;2022-08-18T13:06:11;27.80;99.90
40676;DHT22;26359;48.750;9.314;2022-08-18T13:08:37;27.80;99.90
40676;DHT22;26359;48.750;9.314;2022-08-18T13:11:03;27.90;99.90
40676;DHT22;26359;48.750;9.314;2022-08-18T13:13:30;27.90;99.90
40676;DHT22;26359;48.750;9.314;2022-08-18T13:15:55;28.20;99.90
40676;DHT22;26359;48.750;9.314;2022-08-18T13:18:21;28.10;99.90
40676;DHT22;26359;48.750;9.314;2022-08-18T13:20:47;28.00;99.90
40676;DHT22;26359;48.750;9.314;2022-08-18T13:23:12;27.70;99.90
40676;DHT22;26359;48.750;9.314;2022-08-18T13:25:38;27.60;99.90
40676;DHT22;26359;48.750;9.314;2022-08-18T13:28:05;27.70;99.90
40676;DHT22;26359;48.750;9.314;2022-08-18T13:30:31;27.80;99.90
40676;DHT22;26359;48.750;9.314;2022-08-18T13:32:57;27.90;99.90
40676;DHT22;26359;48.750;9.314;2022-08-18T13:35:23;28.00;99.90
40676;DHT22;26359;48.750;9.314;2022-08-18T13:37:49;28.20;99.90
40676;DHT22;26359;48.750;9.314;2022-08-18T13:40:14;28.30;99.90
40676;DHT22;26359;48.750;9.314;2022-08-18T13:42:45;28.30;99.90
40676;DHT22;26359;48.750;9.314;2022-08-18T13:45:12;28.40;99.90
40676;DHT22;26359;48.750;9.314;2022-08-18T13:47:39;28.10;99.90
40676;DHT22;26359;48.750;9.314;2022-08-18T13:50:05;27.80;99.90
40676;DHT22;26359;48.750;9.314;2022-08-18T13:52:31;27.70;99.90
40676;DHT22;26359;48.750;9.314;2022-08-18T13:54:56;27.50;99.90
40676;DHT22;26359;48.750;9.314;2022-08-18T13:57:22;27.30;99.90
40676;DHT22;26359;48.750;9.314;2022-08-18T13:59:48;27.20;99.90
40676;DHT22;26359;48.750;9.314;2022-08-18T14:02:13;27.00;99.90
40676;DHT22;26359;48.750;9.314;2022-08-18T14:04:39;27.00;99.90
40676;DHT22;26359;48.750;9.314;2022-08-18T14:07:06;27.10;99.90
40676;DHT22;26359;48.750;9.314;2022-08-18T14:09:33;27.10;99.90
40676;DHT22;26359;48.750;9.314;2022-08-18T14:12:01;27.10;99.90
40676;DHT22;26359;48.750;9.314;2022-08-18T14:14:26;26.90;99.90
40676;DHT22;26359;48.750;9.314;2022-08-18T14:16:52;26.80;99.90
40676;DHT22;26359;48.750;9.314;2022-08-18T14:19:17;26.70;99.90
40676;DHT22;26359;48.750;9.314;2022-08-18T14:22:02;26.60;99.90
40676;DHT22;26359;48.750;9.314;2022-08-18T14:24:46;26.60;99.90
40676;DHT22;26359;48.750;9.314;2022-08-18T14:27:36;26.60;99.90
40676;DHT22;26359;48.750;9.314;2022-08-18T14:30:09;26.60;99.90
40676;DHT22;26359;48.750;9.314;2022-08-18T14:32:35;26.50;99.90
40676;DHT22;26359;48.750;9.314;2022-08-18T14:35:03;26.40;99.90
40676;DHT22;26359;48.750;9.314;2022-08-18T14:37:29;26.50;99.90
40676;DHT22;26359;48.750;9.314;2022-08-18T14:39:55;26.40;99.90
40676;DHT22;26359;48.750;9.314;2022-08-18T14:42:21;26.50;99.90
40676;DHT22;26359;48.750;9.314;2022-08-18T14:44:48;26.60;99.90
40676;DHT22;26359;48.750;9.314;2022-08-18T14:47:14;26.60;99.90
40676;DHT22;26359;48.750;9.314;2022-08-18T14:49:40;26.70;99.90
40676;DHT22;26359;48.750;9.314;2022-08-18T14:52:07;26.70;99.90
40676;DHT22;26359;48.750;9.314;2022-08-18T14:54:34;26.80;99.90
40676;DHT22;26359;48.750;9.314;2022-08-18T14:57:00;27.00;99.90
40676;DHT22;26359;48.750;9.314;2022-08-18T14:59:27;27.00;99.90
40676;DHT22;26359;48.750;9.314;2022-08-18T15:01:55;27.10;99.90
40676;DHT22;26359;48.750;9.314;2022-08-18T15:04:21;27.00;99.90
40676;DHT22;26359;48.750;9.314;2022-08-18T15:06:48;26.80;99.90
40676;DHT22;26359;48.750;9.314;2022-08-18T15:09:14;26.80;99.90
40676;DHT22;26359;48.750;9.314;2022-08-18T15:11:39;26.80;99.90
40676;DHT22;26359;48.750;9.314;2022-08-18T15:14:05;26.50;99.90
40676;DHT22;26359;48.750;9.314;2022-08-18T15:16:31;26.40;99.90
40676;DHT22;26359;48.750;9.314;2022-08-18T15:18:59;26.30;99.90
40676;DHT22;26359;48.750;9.314;2022-08-18T15:21:26;26.10;99.90
40676;DHT22;26359;48.750;9.314;2022-08-18T15:24:10;26.10;99.90
40676;DHT22;26359;48.750;9.314;2022-08-18T15:26:56;26.20;99.90
40676;DHT22;26359;48.750;9.314;2022-08-18T15:29:22;26.10;99.90
40676;DHT22;26359;48.750;9.314;2022-08-18T15:31:48;26.10;99.90
40676;DHT22;26359;48.750;9.314;2022-08-18T15:34:15;26.10;99.90
40676;DHT22;26359;48.750;9.314;2022-08-18T15:36:41;26.10;99.90
40676;DHT22;26359;48.750;9.314;2022-08-18T15:39:07;26.10;99.90
40676;DHT22;26359;48.750;9.314;2022-08-18T15:41:38;26.00;99.90
40676;DHT22;26359;48.750;9.314;2022-08-18T15:44:07;26.00;99.90
40676;DHT22;26359;48.750;9.314;2022-08-18T15:46:35;26.00;99.90
40676;DHT22;26359;48.750;9.314;2022-08-18T15:49:04;26.00;99.90
40676;DHT22;26359;48.750;9.314;2022-08-18T15:51:36;26.00;99.90
40676;DHT22;26359;48.750;9.314;2022-08-18T15:54:03;25.90;99.90
40676;DHT22;26359;48.750;9.314;2022-08-18T15:56:30;25.90;99.90
40676;DHT22;26359;48.750;9.314;2022-08-18T15:58:56;25.80;99.90
40676;DHT22;26359;48.750;9.314;2022-08-18T16:01:23;25.90;99.90
40676;DHT22;26359;48.750;9.314;2022-08-18T16:03:50;25.80;99.90
40676;DHT22;26359;48.750;9.314;2022-08-18T16:06:18;25.80;99.90
40676;DHT22;26359;48.750;9.314;2022-08-18T16:08:44;25.80;99.90
40676;DHT22;26359;48.750;9.314;2022-08-18T16:11:12;25.80;99.90
40676;DHT22;26359;48.750;9.314;2022-08-18T16:13:39;25.80;99.90
40676;DHT22;26359;48.750;9.314;2022-08-18T16:16:10;25.80;99.90
40676;DHT22;26359;48.750;9.314;2022-08-18T16:18:36;25.80;99.90
40676;DHT22;26359;48.750;9.314;2022-08-18T16:21:06;25.80;99.90
40676;DHT22;26359;48.750;9.314;2022-08-18T16:23:39;25.80;99.90
40676;DHT22;26359;48.750;9.314;2022-08-18T16:26:06;25.70;99.90
40676;DHT22;26359;48.750;9.314;2022-08-18T16:28:32;25.60;99.90
40676;DHT22;26359;48.750;9.314;2022-08-18T16:30:59;25.60;99.90
40676;DHT22;26359;48.750;9.314;2022-08-18T16:33:25;25.60;99.90
40676;DHT22;26359;48.750;9.314;2022-08-18T16:35:50;25.70;99.90
40676;DHT22;26359;48.750;9.314;2022-08-18T16:38:17;25.60;99.90
40676;DHT22;26359;48.750;9.314;2022-08-18T16:40:44;25.60;99.90
40676;DHT22;26359;48.750;9.314;2022-08-18T16:43:10;25.60;99.90
40676;DHT22;26359;48.750;9.314;2022-08-18T16:45:37;25.60;99.90
40676;DHT22;26359;48.750;9.314;2022-08-18T16:48:04;25.60;99.90
40676;DHT22;26359;48.750;9.314;2022-08-18T16:50:33;25.50;99.90
40676;DHT22;26359;48.750;9.314;2022-08-18T16:52:59;25.60;99.90
40676;DHT22;26359;48.750;9.314;2022-08-18T16:55:24;25.60;99.90
40676;DHT22;26359;48.750;9.314;2022-08-18T16:57:50;25.60;99.90
40676;DHT22;26359;48.750;9.314;2022-08-18T17:00:34;25.50;99.90
40676;DHT22;26359;48.750;9.314;2022-08-18T17:03:18;25.50;99.90
40676;DHT22;26359;48.750;9.314;2022-08-18T17:06:05;25.50;99.90
40676;DHT22;26359;48.750;9.314;2022-08-18T17:08:32;25.40;99.90
40676;DHT22;26359;48.750;9.314;2022-08-18T17:10:59;25.40;99.90
40676;DHT22;26359;48.750;9.314;2022-08-18T17:13:25;25.40;99.90
40676;DHT22;26359;48.750;9.314;2022-08-18T17:15:50;25.30;99.90
40676;DHT22;26359;48.750;9.314;2022-08-18T17:18:16;25.20;99.90
40676;DHT22;26359;48.750;9.314;2022-08-18T17:20:44;25.10;99.90
40676;DHT22;26359;48.750;9.314;2022-08-18T17:23:10;25.00;99.90
40676;DHT22;26359;48.750;9.314;2022-08-18T17:25:35;24.90;99.90
40676;DHT22;26359;48.750;9.314;2022-08-18T17:28:01;24.80;99.90
40676;DHT22;26359;48.750;9.314;2022-08-18T17:30:31;24.80;99.90